Time;durP1;ratioP1;P1;durP2;ratioP2;P2;SDS_P1;SDS_P2;PMS_P1;PMS_P2;Temp;Humidity;BMP_temperature;BMP_pressure;BME280_temperature;BME280_humidity;BME280_pressure;Samples;Min_cycle;Max_cycle;Signal;HPM_P1;HPM_P2
2022/06/19 00:01:58;;;;;;;9.23;2.70;;;26.40;57.30;;;;;;4998696;28;20030;-85
2022/06/19 00:04:23;;;;;;;12.77;3.08;;;26.30;57.60;;;;;;5013660;28;20084;-85
2022/06/19 00:06:50;;;;;;;14.15;2.35;;;26.20;56.90;;;;;;5014851;28;20081;-84
2022/06/19 00:09:16;;;;;;;12.77;2.83;;;26.20;57.30;;;;;;4999186;28;20093;-85
2022/06/19 00:11:42;;;;;;;11.88;2.42;;;26.00;57.70;;;;;;5012289;28;20026;-84
2022/06/19 00:14:09;;;;;;;13.38;2.60;;;26.00;58.20;;;;;;5000018;28;20406;-85
2022/06/19 00:16:36;;;;;;;24.13;3.08;;;26.00;57.80;;;;;;5004838;28;20436;-85
2022/06/19 00:19:02;;;;;;;9.50;2.42;;;26.10;57.60;;;;;;5008286;28;20038;-84
2022/06/19 00:21:28;;;;;;;11.15;2.58;;;26.10;57.10;;;;;;4998768;28;20026;-85
2022/06/19 00:23:54;;;;;;;8.57;2.00;;;26.00;57.70;;;;;;5007900;28;20025;-81
2022/06/19 00:26:20;;;;;;;14.40;2.10;;;26.00;57.40;;;;;;5024614;28;20357;-84
2022/06/19 00:28:47;;;;;;;10.63;2.60;;;26.00;58.10;;;;;;5004136;28;20022;-84
2022/06/19 00:31:13;;;;;;;11.00;2.45;;;25.90;58.80;;;;;;5004645;28;20026;-83
2022/06/19 00:33:39;;;;;;;8.43;2.35;;;25.90;58.30;;;;;;5002412;28;20105;-83
2022/06/19 00:36:05;;;;;;;11.35;2.40;;;25.80;58.30;;;;;;5003364;28;20536;-82
2022/06/19 00:38:32;;;;;;;12.88;2.30;;;25.80;59.00;;;;;;5000641;28;20042;-82
2022/06/19 00:40:59;;;;;;;10.88;2.40;;;25.70;59.30;;;;;;4999223;28;20029;-82
2022/06/19 00:43:26;;;;;;;10.68;2.65;;;25.70;59.30;;;;;;5004056;28;20117;-82
2022/06/19 00:45:52;;;;;;;15.98;2.63;;;25.60;59.30;;;;;;5005220;28;20117;-81
2022/06/19 00:48:31;;;;;;;7.85;2.55;;;25.60;59.70;;;;;;5000420;28;20073;-82
2022/06/19 00:51:00;;;;;;;9.07;2.65;;;25.50;59.90;;;;;;5000480;28;20026;-82
2022/06/19 00:53:41;;;;;;;11.38;2.63;;;25.40;60.00;;;;;;5002367;28;20481;-82
2022/06/19 00:56:14;;;;;;;14.73;2.60;;;25.40;59.80;;;;;;5001190;28;20463;-82
2022/06/19 00:58:43;;;;;;;11.05;2.10;;;25.30;60.30;;;;;;5002995;28;20034;-82
2022/06/19 01:01:16;;;;;;;11.98;2.72;;;25.30;60.90;;;;;;5004292;28;20467;-82
2022/06/19 01:03:53;;;;;;;11.52;2.20;;;25.20;61.10;;;;;;5004260;28;20028;-82
2022/06/19 01:06:21;;;;;;;12.88;2.40;;;25.10;61.00;;;;;;5001190;28;20072;-83
2022/06/19 01:08:47;;;;;;;12.15;2.40;;;25.10;60.80;;;;;;5006059;28;20026;-85
2022/06/19 01:11:14;;;;;;;13.35;2.58;;;25.10;60.80;;;;;;5004988;28;20104;-83
2022/06/19 01:13:41;;;;;;;9.73;2.58;;;25.10;60.80;;;;;;5002761;28;20029;-85
2022/06/19 01:16:07;;;;;;;9.63;2.55;;;25.10;61.00;;;;;;5001588;28;20021;-83
2022/06/19 01:18:35;;;;;;;10.43;2.45;;;25.10;61.40;;;;;;5002279;28;20088;-86
2022/06/19 01:21:18;;;;;;;12.57;2.72;;;25.00;61.60;;;;;;5002112;28;20605;-86
2022/06/19 01:24:11;;;;;;;12.52;2.33;;;25.00;61.60;;;;;;5002758;28;20068;-86
2022/06/19 01:26:41;;;;;;;13.70;2.70;;;24.90;61.90;;;;;;5003260;28;20053;-86
2022/06/19 01:29:08;;;;;;;13.03;2.90;;;24.80;61.80;;;;;;5005491;28;20532;-85
2022/06/19 01:31:40;;;;;;;14.90;2.30;;;24.80;62.20;;;;;;5001480;28;20427;-84
2022/06/19 01:34:27;;;;;;;8.65;2.30;;;24.70;62.30;;;;;;5026780;28;20026;-84
2022/06/19 01:37:02;;;;;;;12.95;2.53;;;24.70;62.60;;;;;;5003376;28;20088;-85
2022/06/19 01:39:36;;;;;;;10.27;2.63;;;24.60;62.90;;;;;;5003236;28;20021;-83
2022/06/19 01:42:03;;;;;;;12.32;2.60;;;24.50;63.30;;;;;;5003171;28;20029;-85
2022/06/19 01:44:30;;;;;;;9.40;2.78;;;24.50;63.60;;;;;;5000004;28;20023;-82
2022/06/19 01:46:56;;;;;;;13.55;2.33;;;24.50;64.10;;;;;;5002040;28;20052;-81
2022/06/19 01:49:23;;;;;;;10.20;2.22;;;24.50;63.30;;;;;;5003037;28;20364;-82
2022/06/19 01:51:51;;;;;;;13.80;3.00;;;24.40;64.10;;;;;;4999902;28;20038;-81
2022/06/19 01:54:24;;;;;;;9.38;2.55;;;24.40;63.00;;;;;;5004806;28;20026;-83
2022/06/19 01:56:51;;;;;;;13.00;2.60;;;24.40;63.20;;;;;;5002308;28;20470;-84
2022/06/19 01:59:18;;;;;;;8.85;2.47;;;24.30;63.30;;;;;;5003251;28;20022;-83
2022/06/19 02:01:45;;;;;;;9.40;2.38;;;24.40;63.30;;;;;;5002451;28;20029;-83
2022/06/19 02:04:11;;;;;;;10.85;2.65;;;24.30;63.60;;;;;;5003373;28;20022;-83
2022/06/19 02:06:47;;;;;;;8.38;2.00;;;24.30;63.90;;;;;;4998064;28;20050;-82
2022/06/19 02:09:17;;;;;;;16.05;2.42;;;24.30;64.00;;;;;;5008002;28;20030;-80
2022/06/19 02:11:43;;;;;;;15.48;2.90;;;24.30;63.90;;;;;;5001463;28;20061;-83
2022/06/19 02:14:11;;;;;;;17.05;2.72;;;24.30;64.60;;;;;;4998208;28;20058;-82
2022/06/19 02:16:40;;;;;;;9.55;2.40;;;24.30;64.20;;;;;;5001213;28;20022;-85
2022/06/19 02:19:06;;;;;;;20.52;3.10;;;24.30;65.20;;;;;;5003656;28;20089;-88
2022/06/19 02:21:39;;;;;;;7.72;2.72;;;24.20;64.50;;;;;;5005156;28;20025;-87
2022/06/19 02:24:07;;;;;;;13.70;2.42;;;24.10;65.60;;;;;;5000664;28;20027;-86
2022/06/19 02:26:36;;;;;;;9.45;2.38;;;24.00;65.70;;;;;;5003936;28;20464;-87
2022/06/19 02:29:04;;;;;;;10.00;2.53;;;24.00;66.00;;;;;;5002276;28;20033;-88
2022/06/19 02:31:32;;;;;;;8.60;2.10;;;23.90;66.50;;;;;;5002077;28;20033;-87
2022/06/19 02:34:01;;;;;;;10.38;2.67;;;23.80;66.60;;;;;;5009103;28;20083;-83
2022/06/19 02:36:45;;;;;;;9.32;2.28;;;23.80;66.50;;;;;;5030348;28;20133;-83
2022/06/19 02:39:22;;;;;;;9.27;2.40;;;23.70;67.60;;;;;;5004913;28;20038;-83
2022/06/19 02:42:03;;;;;;;11.75;2.70;;;23.60;67.80;;;;;;5006610;28;20171;-84
2022/06/19 02:44:39;;;;;;;12.65;2.95;;;23.60;68.70;;;;;;5005639;28;20089;-84
2022/06/19 02:47:06;;;;;;;10.77;2.40;;;23.60;69.00;;;;;;5012501;28;20061;-82
2022/06/19 02:49:32;;;;;;;11.85;2.35;;;23.50;69.20;;;;;;5010590;28;20018;-84
2022/06/19 02:51:58;;;;;;;12.57;2.90;;;23.50;70.00;;;;;;5007897;28;20452;-84
2022/06/19 02:54:24;;;;;;;18.00;2.83;;;23.50;70.50;;;;;;5008175;28;20030;-84
2022/06/19 02:56:50;;;;;;;11.35;2.40;;;23.40;69.90;;;;;;5006487;28;20029;-84
2022/06/19 02:59:16;;;;;;;11.07;2.72;;;23.40;70.20;;;;;;5006625;28;20045;-82
2022/06/19 03:01:41;;;;;;;9.45;2.50;;;23.30;70.60;;;;;;5006764;28;20026;-85
2022/06/19 03:04:16;;;;;;;9.65;2.60;;;23.30;70.60;;;;;;5005952;28;20380;-86
2022/06/19 03:06:42;;;;;;;12.10;3.28;;;23.30;71.20;;;;;;5002645;28;20107;-85
2022/06/19 03:09:07;;;;;;;10.27;2.75;;;23.30;71.10;;;;;;5005617;28;20550;-85
2022/06/19 03:11:33;;;;;;;9.65;2.63;;;23.30;71.40;;;;;;5005776;28;20036;-85
2022/06/19 03:13:58;;;;;;;10.57;2.40;;;23.30;71.50;;;;;;5004524;28;20111;-85
2022/06/19 03:16:24;;;;;;;12.43;3.20;;;23.30;71.70;;;;;;5003453;28;20029;-84
2022/06/19 03:18:50;;;;;;;7.47;2.65;;;23.20;71.10;;;;;;5006618;28;20468;-85
2022/06/19 03:21:16;;;;;;;9.80;2.88;;;23.30;71.60;;;;;;5004411;28;20361;-80
2022/06/19 03:23:41;;;;;;;8.48;2.60;;;23.20;71.70;;;;;;5005280;28;20029;-84
2022/06/19 03:26:07;;;;;;;10.43;2.70;;;23.20;72.10;;;;;;5002259;28;20105;-84
2022/06/19 03:28:32;;;;;;;6.45;2.30;;;23.10;71.80;;;;;;5006307;28;20036;-86
2022/06/19 03:30:58;;;;;;;9.65;2.55;;;23.10;72.40;;;;;;5001519;28;20028;-84
2022/06/19 03:33:24;;;;;;;8.68;2.65;;;23.10;72.50;;;;;;5009088;28;20562;-87
2022/06/19 03:35:50;;;;;;;12.93;2.75;;;23.00;73.10;;;;;;5010468;28;20027;-83
2022/06/19 03:38:17;;;;;;;10.88;2.58;;;23.00;73.30;;;;;;5001054;28;20397;-83
2022/06/19 03:40:43;;;;;;;8.75;2.70;;;23.00;73.40;;;;;;5004734;28;20034;-84
2022/06/19 03:43:09;;;;;;;13.48;2.80;;;23.00;73.90;;;;;;5009439;28;20030;-84
2022/06/19 03:45:35;;;;;;;9.93;2.67;;;23.00;73.00;;;;;;5027362;28;20034;-85
2022/06/19 03:48:01;;;;;;;14.02;2.70;;;22.90;73.60;;;;;;4999296;28;20041;-85
2022/06/19 03:50:26;;;;;;;11.00;2.72;;;22.90;73.30;;;;;;5007307;28;20026;-85
2022/06/19 03:52:52;;;;;;;12.45;2.88;;;22.90;73.40;;;;;;5003488;28;20100;-84
2022/06/19 03:55:18;;;;;;;11.05;2.58;;;22.80;74.80;;;;;;4995929;28;20106;-79
2022/06/19 03:57:43;;;;;;;12.57;2.70;;;22.80;73.80;;;;;;4997509;28;20034;-83
2022/06/19 04:00:16;;;;;;;10.18;2.80;;;22.70;74.10;;;;;;5009868;28;20074;-86
2022/06/19 04:02:43;;;;;;;9.98;2.80;;;22.70;74.30;;;;;;5005177;28;20036;-85
2022/06/19 04:05:10;;;;;;;12.25;2.85;;;22.70;74.20;;;;;;5000357;28;20539;-85
2022/06/19 04:07:46;;;;;;;11.07;2.80;;;22.80;74.40;;;;;;5011612;28;20495;-85
2022/06/19 04:10:13;;;;;;;12.13;2.85;;;22.80;74.10;;;;;;5014086;28;20038;-85
2022/06/19 04:12:39;;;;;;;12.43;2.70;;;22.70;74.90;;;;;;5004464;28;20057;-83
2022/06/19 04:15:05;;;;;;;9.63;2.47;;;22.80;74.80;;;;;;5007934;28;20029;-85
2022/06/19 04:17:31;;;;;;;8.68;2.40;;;22.70;74.70;;;;;;4997869;28;20073;-85
2022/06/19 04:19:56;;;;;;;15.27;2.88;;;22.70;75.10;;;;;;5010031;28;20057;-84
2022/06/19 04:22:22;;;;;;;13.30;2.63;;;22.80;75.30;;;;;;4994148;28;20030;-86
2022/06/19 04:24:48;;;;;;;8.77;2.85;;;22.70;76.90;;;;;;5000742;28;20027;-86
2022/06/19 04:27:14;;;;;;;11.68;2.40;;;22.70;76.10;;;;;;4995224;28;20033;-84
2022/06/19 04:29:40;;;;;;;10.50;2.85;;;22.70;76.60;;;;;;4995420;28;20089;-85
2022/06/19 04:32:06;;;;;;;13.00;2.92;;;22.70;77.20;;;;;;5014064;28;20026;-85
2022/06/19 04:34:32;;;;;;;14.02;2.70;;;22.70;77.20;;;;;;5005230;28;20461;-83
2022/06/19 04:36:57;;;;;;;6.10;2.50;;;22.70;77.90;;;;;;5006901;28;20515;-83
2022/06/19 04:39:23;;;;;;;11.75;3.17;;;22.70;77.90;;;;;;5013900;28;20118;-82
2022/06/19 04:41:48;;;;;;;9.07;2.78;;;22.70;77.90;;;;;;4998595;28;20030;-83
2022/06/19 04:44:16;;;;;;;9.77;2.80;;;22.80;77.30;;;;;;5007495;28;20057;-83
2022/06/19 04:46:43;;;;;;;7.80;2.90;;;22.90;77.10;;;;;;5003636;28;20049;-86
2022/06/19 04:49:10;;;;;;;9.40;2.63;;;22.90;77.50;;;;;;5001436;28;20061;-87
2022/06/19 04:51:35;;;;;;;17.10;2.85;;;22.90;76.80;;;;;;5009949;28;20098;-86
2022/06/19 04:54:01;;;;;;;15.50;3.50;;;22.90;77.50;;;;;;4994610;28;20058;-87
2022/06/19 04:56:27;;;;;;;8.50;2.58;;;22.90;77.40;;;;;;5001208;28;20080;-87
2022/06/19 04:58:53;;;;;;;8.77;2.28;;;22.90;77.20;;;;;;5002648;28;20134;-87
2022/06/19 05:01:22;;;;;;;9.98;2.88;;;23.00;78.00;;;;;;5010001;28;20379;-88
2022/06/19 05:03:47;;;;;;;13.32;2.70;;;23.00;78.10;;;;;;4995368;28;20031;-88
2022/06/19 05:06:13;;;;;;;11.80;2.83;;;23.10;78.30;;;;;;5001012;28;20069;-87
2022/06/19 05:08:39;;;;;;;13.85;2.75;;;23.10;78.70;;;;;;5003405;28;20042;-83
2022/06/19 05:11:04;;;;;;;8.40;2.30;;;23.20;78.90;;;;;;5006828;28;20053;-82
2022/06/19 05:13:30;;;;;;;11.18;2.67;;;23.20;79.70;;;;;;5013490;28;20026;-83
2022/06/19 05:16:05;;;;;;;14.63;3.38;;;23.20;80.60;;;;;;5016790;28;20022;-84
2022/06/19 05:18:31;;;;;;;10.43;3.08;;;23.30;80.90;;;;;;5010316;28;20108;-83
2022/06/19 05:21:01;;;;;;;14.60;2.80;;;23.40;80.20;;;;;;5001882;28;20029;-83
2022/06/19 05:23:27;;;;;;;10.10;2.80;;;23.40;80.10;;;;;;5001793;28;20054;-83
2022/06/19 05:26:09;;;;;;;10.82;2.75;;;23.50;80.00;;;;;;5009367;28;20018;-82
2022/06/19 05:28:35;;;;;;;10.18;2.95;;;23.50;80.10;;;;;;5001611;28;20058;-81
2022/06/19 05:31:01;;;;;;;9.10;4.25;;;23.50;78.50;;;;;;5012649;28;20479;-83
2022/06/19 05:33:29;;;;;;;12.20;4.22;;;23.60;78.10;;;;;;5012416;28;20058;-84
2022/06/19 05:35:55;;;;;;;12.80;3.55;;;23.70;76.70;;;;;;4993417;28;20041;-83
2022/06/19 05:38:21;;;;;;;20.27;3.55;;;23.80;76.70;;;;;;5000731;28;20033;-84
2022/06/19 05:40:55;;;;;;;11.05;3.05;;;23.90;76.20;;;;;;5012127;28;20034;-83
2022/06/19 05:43:22;;;;;;;16.83;3.60;;;24.00;75.70;;;;;;5013795;28;20022;-84
2022/06/19 05:45:50;;;;;;;10.70;3.50;;;24.10;75.80;;;;;;4996390;28;20034;-83
2022/06/19 05:48:16;;;;;;;11.30;3.13;;;24.10;75.80;;;;;;5005754;28;20595;-83
2022/06/19 05:50:42;;;;;;;16.88;3.40;;;24.30;75.40;;;;;;5002043;28;20061;-82
2022/06/19 05:53:07;;;;;;;11.18;2.63;;;24.30;75.20;;;;;;4998884;28;20022;-83
2022/06/19 05:55:34;;;;;;;10.30;2.88;;;24.40;75.10;;;;;;4994322;28;20054;-82
2022/06/19 05:58:00;;;;;;;11.13;3.13;;;24.50;75.70;;;;;;5007833;28;20100;-84
2022/06/19 06:00:25;;;;;;;17.20;3.63;;;24.50;75.30;;;;;;4999677;28;20391;-82
2022/06/19 06:02:51;;;;;;;13.18;3.15;;;24.50;75.70;;;;;;5001968;28;20034;-86
2022/06/19 06:05:17;;;;;;;12.90;3.03;;;24.60;76.50;;;;;;5008889;28;20467;-86
2022/06/19 06:07:42;;;;;;;9.23;2.72;;;24.70;76.80;;;;;;4995947;28;20039;-85
2022/06/19 06:10:11;;;;;;;11.75;3.13;;;24.70;76.90;;;;;;5008306;28;20416;-84
2022/06/19 06:12:36;;;;;;;10.02;2.55;;;24.80;77.30;;;;;;5001812;28;20030;-87
2022/06/19 06:15:02;;;;;;;13.23;3.55;;;24.80;76.80;;;;;;5000756;28;20033;-87
2022/06/19 06:17:27;;;;;;;13.68;3.15;;;24.90;76.90;;;;;;5009169;28;20088;-87
2022/06/19 06:19:53;;;;;;;12.18;3.00;;;24.90;76.10;;;;;;4995424;28;20133;-88
2022/06/19 06:22:19;;;;;;;10.93;2.63;;;25.00;76.00;;;;;;5005305;28;20138;-86
2022/06/19 06:24:44;;;;;;;17.77;2.75;;;25.00;75.70;;;;;;5000212;28;20133;-87
2022/06/19 06:27:10;;;;;;;11.68;2.95;;;25.10;75.70;;;;;;5006529;28;20029;-88
2022/06/19 06:29:36;;;;;;;12.40;4.03;;;25.20;75.40;;;;;;4994584;28;20022;-88
2022/06/19 06:32:01;;;;;;;14.13;3.53;;;25.20;75.00;;;;;;4997541;28;20036;-85
2022/06/19 06:34:27;;;;;;;12.70;3.67;;;25.30;74.60;;;;;;5011884;28;20032;-84
2022/06/19 06:36:53;;;;;;;14.30;3.63;;;25.40;74.40;;;;;;5013409;28;20069;-84
2022/06/19 06:39:20;;;;;;;10.02;2.80;;;25.40;74.00;;;;;;4996096;28;20480;-84
2022/06/19 06:41:45;;;;;;;13.80;3.47;;;25.50;73.50;;;;;;5010471;28;20328;-85
2022/06/19 06:44:15;;;;;;;12.75;3.05;;;25.60;73.00;;;;;;5007479;28;20448;-85
2022/06/19 06:46:41;;;;;;;17.50;3.30;;;25.60;73.80;;;;;;4992399;28;20026;-84
2022/06/19 06:49:07;;;;;;;14.38;3.67;;;25.80;72.80;;;;;;5006441;28;20065;-86
2022/06/19 06:51:33;;;;;;;14.48;3.00;;;25.80;71.90;;;;;;5013553;28;20502;-85
2022/06/19 06:53:59;;;;;;;15.63;3.13;;;25.90;71.40;;;;;;5008025;28;20475;-85
2022/06/19 06:56:29;;;;;;;16.55;3.65;;;26.00;71.20;;;;;;4993861;28;20468;-85
2022/06/19 06:58:55;;;;;;;8.93;2.53;;;26.10;71.40;;;;;;5003823;28;20101;-86
2022/06/19 07:01:22;;;;;;;11.40;3.13;;;26.30;71.90;;;;;;5012553;28;20467;-86
2022/06/19 07:03:55;;;;;;;13.45;3.08;;;26.30;71.90;;;;;;4996291;28;20030;-87
2022/06/19 07:06:23;;;;;;;12.38;3.03;;;26.40;71.90;;;;;;5012898;28;20052;-85
2022/06/19 07:08:48;;;;;;;13.88;3.20;;;26.40;71.90;;;;;;5012635;28;20451;-85
2022/06/19 07:11:19;;;;;;;12.38;3.15;;;26.60;71.40;;;;;;4998157;28;20093;-86
2022/06/19 07:13:45;;;;;;;;;;;26.70;70.50;;;;;;5009171;28;20037;-86
2022/06/19 07:16:11;;;;;;;13.85;3.83;;;26.70;70.10;;;;;;4994538;28;19905;-87
2022/06/19 07:18:36;;;;;;;14.38;3.60;;;26.80;70.50;;;;;;5003840;28;20029;-87
2022/06/19 07:21:02;;;;;;;12.15;3.85;;;26.90;70.40;;;;;;5014202;28;20545;-87
2022/06/19 07:23:28;;;;;;;13.27;3.22;;;27.00;70.30;;;;;;5007045;28;20422;-82
2022/06/19 07:25:53;;;;;;;14.63;3.65;;;27.00;70.20;;;;;;4996681;28;20038;-86
2022/06/19 07:28:19;;;;;;;12.15;4.30;;;27.10;70.30;;;;;;5019556;28;20034;-86
2022/06/19 07:30:45;;;;;;;13.85;4.05;;;27.20;70.20;;;;;;5005181;28;20030;-85
2022/06/19 07:33:12;;;;;;;11.98;3.65;;;27.30;70.00;;;;;;4996312;28;20026;-86
2022/06/19 07:35:38;;;;;;;12.43;3.80;;;27.40;69.60;;;;;;5012482;28;20026;-86
2022/06/19 07:38:04;;;;;;;12.60;4.03;;;27.50;69.40;;;;;;5002603;28;20124;-86
2022/06/19 07:40:29;;;;;;;15.85;3.70;;;27.50;69.50;;;;;;5012956;28;20077;-80
2022/06/19 07:42:55;;;;;;;11.77;3.95;;;27.60;69.60;;;;;;5028965;28;20037;-84
2022/06/19 07:45:21;;;;;;;13.60;3.63;;;27.70;69.10;;;;;;5001272;28;20420;-84
2022/06/19 07:50:31;;;;;;;12.20;3.55;;;28.00;68.30;;;;;;5006681;28;20096;-85
2022/06/19 07:52:56;;;;;;;10.30;3.65;;;28.10;67.30;;;;;;5004567;28;20050;-86
2022/06/19 07:55:30;;;;;;;9.80;3.90;;;28.30;65.70;;;;;;5010692;28;20026;-83
2022/06/19 07:58:00;;;;;;;7.20;3.80;;;28.50;64.50;;;;;;5014488;28;20113;-84
2022/06/19 08:00:29;;;;;;;13.48;4.18;;;28.60;64.50;;;;;;5014042;28;20037;-83
2022/06/19 08:02:55;;;;;;;10.10;3.92;;;28.80;63.50;;;;;;5003520;28;20026;-83
2022/06/19 08:05:30;;;;;;;11.65;3.95;;;29.00;62.20;;;;;;5009993;28;20141;-82
2022/06/19 08:07:58;;;;;;;18.48;4.70;;;29.00;61.50;;;;;;4998834;28;20034;-82
2022/06/19 08:10:34;;;;;;;10.02;4.07;;;29.10;61.10;;;;;;5006443;28;20026;-82
2022/06/19 08:13:00;;;;;;;13.75;4.80;;;29.20;60.30;;;;;;5007704;28;20463;-82
2022/06/19 08:15:26;;;;;;;10.73;4.35;;;29.30;60.70;;;;;;5014130;28;20033;-82
2022/06/19 08:17:52;;;;;;;9.00;3.67;;;29.40;61.00;;;;;;5009568;28;20061;-83
2022/06/19 08:20:22;;;;;;;11.88;4.35;;;29.40;60.90;;;;;;5002739;28;20084;-82
2022/06/19 08:22:47;;;;;;;14.68;4.43;;;29.50;59.80;;;;;;5006543;28;20017;-84
2022/06/19 08:25:15;;;;;;;7.32;4.10;;;29.60;59.10;;;;;;5008156;28;20506;-82
2022/06/19 08:27:42;;;;;;;8.55;3.97;;;29.70;59.20;;;;;;5002024;28;20025;-82
2022/06/19 08:30:17;;;;;;;10.75;4.50;;;29.70;59.90;;;;;;5000889;28;20022;-83
2022/06/19 08:32:43;;;;;;;10.90;4.05;;;29.80;59.00;;;;;;5000340;28;20027;-82
2022/06/19 08:35:09;;;;;;;8.88;4.25;;;29.80;59.20;;;;;;5001885;28;20030;-82
2022/06/19 08:37:36;;;;;;;7.53;3.90;;;29.90;59.50;;;;;;5012238;28;20042;-79
2022/06/19 08:40:25;;;;;;;10.88;4.13;;;30.00;59.20;;;;;;5010261;28;20041;-82
2022/06/19 08:43:19;;;;;;;8.23;4.70;;;30.00;58.70;;;;;;5001884;28;20456;-82
2022/06/19 08:46:21;;;;;;;9.20;3.83;;;30.10;57.80;;;;;;5011994;28;20037;-82
2022/06/19 08:49:00;;;;;;;9.50;3.53;;;30.10;57.40;;;;;;4980885;28;20086;-83
2022/06/19 08:51:53;;;;;;;8.70;3.97;;;30.10;57.20;;;;;;5010394;28;20498;-91
2022/06/19 08:54:18;;;;;;;6.93;3.80;;;30.20;56.50;;;;;;5002236;28;20026;-85
2022/06/19 08:56:54;;;;;;;8.05;3.83;;;30.20;56.10;;;;;;4995526;28;20030;-86
2022/06/19 08:59:30;;;;;;;12.25;3.97;;;30.40;55.80;;;;;;5012177;28;20026;-88
2022/06/19 09:01:59;;;;;;;14.05;3.78;;;30.40;55.70;;;;;;5015205;28;20038;-85
2022/06/19 09:07:43;;;;;;;9.80;3.67;;;30.40;55.00;;;;;;5010974;28;20062;-89
2022/06/19 09:10:23;;;;;;;11.82;3.70;;;30.40;55.20;;;;;;4996654;28;20053;-89
2022/06/19 09:13:08;;;;;;;7.63;3.50;;;30.40;55.90;;;;;;5008642;28;20029;-85
2022/06/19 09:15:34;;;;;;;7.85;3.67;;;30.40;56.30;;;;;;5014944;28;20022;-85
2022/06/19 09:18:19;;;;;;;9.23;3.75;;;30.50;55.70;;;;;;5009599;28;20026;-87
2022/06/19 09:21:07;;;;;;;9.68;3.65;;;30.60;53.60;;;;;;4995549;28;20486;-86
2022/06/19 09:23:41;;;;;;;9.13;3.83;;;30.70;53.80;;;;;;5015649;28;20029;-85
2022/06/19 09:26:20;;;;;;;4.75;3.15;;;30.80;53.90;;;;;;5008251;28;20036;-83
2022/06/19 09:29:03;;;;;;;10.82;3.72;;;30.80;53.40;;;;;;5003842;28;20129;-89
2022/06/19 09:31:53;;;;;;;12.50;4.00;;;30.90;53.70;;;;;;4997874;28;20027;-88
2022/06/19 09:34:34;;;;;;;7.63;3.65;;;31.00;53.30;;;;;;5025809;28;20384;-90
2022/06/19 09:37:28;;;;;;;7.03;3.55;;;31.10;52.70;;;;;;4994923;28;20076;-95
2022/06/19 09:40:04;;;;;;;14.57;4.75;;;31.00;52.70;;;;;;4997843;28;20038;-93
2022/06/19 09:42:42;;;;;;;8.85;3.50;;;31.10;52.50;;;;;;5006512;28;20085;-94
2022/06/19 09:45:17;;;;;;;10.90;3.60;;;31.10;52.70;;;;;;5018419;28;20030;-95
2022/06/19 09:47:50;;;;;;;8.65;3.78;;;31.10;52.50;;;;;;5001459;28;20030;-87
2022/06/19 09:50:29;;;;;;;9.45;3.78;;;31.10;53.00;;;;;;5012143;28;20490;-95
2022/06/19 09:53:25;;;;;;;13.40;3.72;;;31.20;53.20;;;;;;5003172;28;20034;-96
2022/06/19 09:55:57;;;;;;;8.30;3.70;;;31.30;52.90;;;;;;5010670;28;20318;-94
2022/06/19 09:59:05;;;;;;;9.50;3.60;;;31.30;52.90;;;;;;5001140;28;20041;-93
2022/06/19 10:01:31;;;;;;;8.27;4.20;;;31.40;53.00;;;;;;4997974;28;20415;-93
2022/06/19 10:04:05;;;;;;;9.02;3.95;;;31.40;53.30;;;;;;5011169;28;20034;-96
2022/06/19 10:06:43;;;;;;;7.57;4.22;;;31.50;53.10;;;;;;5011066;28;20050;-88
2022/06/19 10:09:28;;;;;;;14.43;3.90;;;31.50;52.80;;;;;;5015927;28;20072;-88
2022/06/19 10:11:58;;;;;;;12.30;3.92;;;31.50;53.10;;;;;;5012026;28;20050;-88
2022/06/19 10:14:41;;;;;;;11.35;3.50;;;31.50;52.90;;;;;;5012217;28;20037;-91
2022/06/19 10:17:22;;;;;;;8.68;4.13;;;31.60;52.70;;;;;;4999242;28;20061;-90
2022/06/19 10:19:52;;;;;;;;;;;31.60;52.90;;;;;;5011895;28;20045;-90
2022/06/19 10:22:46;;;;;;;13.98;3.80;;;31.70;53.30;;;;;;5012190;28;19912;-89
2022/06/19 10:25:36;;;;;;;9.05;4.18;;;31.70;53.70;;;;;;5007080;28;20034;-90
2022/06/19 10:28:19;;;;;;;10.30;3.80;;;31.80;53.30;;;;;;4998655;28;20034;-91
2022/06/19 10:31:26;;;;;;;9.70;3.58;;;31.80;52.90;;;;;;5001260;28;20093;-89
2022/06/19 10:34:33;;;;;;;8.23;3.60;;;31.90;52.00;;;;;;5008439;28;20018;-92
2022/06/19 10:37:17;;;;;;;9.48;4.13;;;31.80;51.30;;;;;;4941017;29;20039;-90
2022/06/19 10:40:02;;;;;;;9.38;3.80;;;31.80;51.30;;;;;;4949271;29;20036;-90
2022/06/19 10:42:46;;;;;;;8.60;3.45;;;31.80;50.80;;;;;;4985189;28;20468;-89
2022/06/19 10:45:29;;;;;;;11.68;3.47;;;31.90;51.30;;;;;;4997881;28;20037;-86
2022/06/19 10:48:04;;;;;;;8.27;3.17;;;31.90;50.70;;;;;;5002679;28;20052;-86
2022/06/19 10:50:41;;;;;;;10.15;3.50;;;31.90;50.70;;;;;;5010404;28;20018;-87
2022/06/19 10:53:32;;;;;;;10.02;3.75;;;31.90;50.90;;;;;;5000904;28;20065;-85
2022/06/19 10:56:06;;;;;;;9.52;3.78;;;31.90;50.90;;;;;;5016431;28;20464;-89
2022/06/19 10:58:32;;;;;;;7.25;3.28;;;32.00;51.00;;;;;;5016046;28;20088;-85
2022/06/19 11:01:02;;;;;;;5.13;3.40;;;32.00;51.30;;;;;;5003085;28;20370;-88
2022/06/19 11:06:30;;;;;;;7.68;3.75;;;32.00;50.60;;;;;;5006528;28;20087;-88
2022/06/19 11:09:04;;;;;;;12.15;3.75;;;32.10;50.30;;;;;;5013224;28;20116;-88
2022/06/19 11:11:31;;;;;;;6.00;3.35;;;32.20;50.60;;;;;;5016161;28;20037;-87
2022/06/19 11:14:08;;;;;;;7.30;3.47;;;32.20;49.90;;;;;;4998760;28;20034;-86
2022/06/19 11:16:52;;;;;;;13.45;3.47;;;32.30;49.50;;;;;;5005703;28;20034;-89
2022/06/19 11:19:42;;;;;;;7.07;3.35;;;32.30;49.80;;;;;;5010949;28;20088;-91
2022/06/19 11:22:38;;;;;;;11.25;3.97;;;32.30;49.60;;;;;;5010595;28;20037;-84
2022/06/19 11:25:30;;;;;;;7.20;3.90;;;32.30;49.60;;;;;;5009227;28;20053;-83
2022/06/19 11:28:16;;;;;;;5.50;3.30;;;32.40;49.30;;;;;;4995348;28;20096;-84
2022/06/19 11:30:50;;;;;;;9.93;3.35;;;32.40;49.80;;;;;;5005057;28;20026;-80
2022/06/19 11:33:30;;;;;;;7.00;3.08;;;32.50;50.00;;;;;;5010169;28;20025;-78
2022/06/19 11:35:59;;;;;;;6.70;3.60;;;32.50;50.20;;;;;;4994302;28;20038;-80
2022/06/19 11:38:54;;;;;;;7.45;3.33;;;32.50;50.20;;;;;;5003931;28;20529;-81
2022/06/19 11:41:34;;;;;;;6.97;3.40;;;32.60;50.10;;;;;;5009346;28;20038;-85
2022/06/19 11:44:20;;;;;;;11.15;3.90;;;32.50;49.80;;;;;;4999686;28;20028;-95
2022/06/19 11:46:54;;;;;;;11.65;3.70;;;32.60;50.20;;;;;;5006704;28;20033;-94
2022/06/19 11:49:40;;;;;;;9.77;3.60;;;32.80;49.80;;;;;;5012069;28;20022;-92
2022/06/19 11:52:19;;;;;;;10.23;3.67;;;32.80;49.70;;;;;;5013967;28;20129;-91
2022/06/19 11:54:50;;;;;;;6.18;3.38;;;32.80;49.80;;;;;;5003708;28;20030;-88
2022/06/19 11:57:26;;;;;;;7.15;3.67;;;32.80;49.30;;;;;;5009994;28;20025;-86
2022/06/19 11:59:57;;;;;;;8.52;3.42;;;32.90;49.20;;;;;;4998256;28;20105;-79
2022/06/19 12:02:26;;;;;;;10.45;3.35;;;32.90;49.10;;;;;;5006031;28;20022;-81
2022/06/19 12:04:55;;;;;;;8.95;3.40;;;32.90;49.30;;;;;;5005374;28;20053;-81
2022/06/19 12:07:24;;;;;;;11.77;3.47;;;32.90;49.30;;;;;;5000209;28;20085;-79
2022/06/19 12:10:03;;;;;;;5.80;3.25;;;32.90;49.10;;;;;;5009858;28;20058;-89
2022/06/19 12:12:31;;;;;;;5.88;3.60;;;33.00;49.50;;;;;;5002013;28;20518;-91
2022/06/19 12:15:22;;;;;;;8.20;3.72;;;33.00;49.50;;;;;;5005522;28;20030;-90
2022/06/19 12:17:59;;;;;;;9.18;3.58;;;33.10;48.80;;;;;;5016439;28;20129;-89
2022/06/19 12:20:29;;;;;;;7.10;3.42;;;33.10;49.00;;;;;;5005859;28;20030;-83
2022/06/19 12:23:18;;;;;;;7.97;3.53;;;33.10;49.20;;;;;;5005660;28;20037;-88
2022/06/19 12:25:52;;;;;;;8.07;3.40;;;33.20;48.80;;;;;;5008080;28;20029;-87
2022/06/19 12:28:33;;;;;;;15.93;3.55;;;33.30;49.10;;;;;;5001511;28;20046;-86
2022/06/19 12:31:12;;;;;;;9.32;4.32;;;33.20;48.70;;;;;;5004931;28;20037;-85
2022/06/19 12:34:23;;;;;;;10.70;4.22;;;33.30;49.00;;;;;;5016280;28;20037;-84
2022/06/19 12:36:49;;;;;;;9.35;4.25;;;33.40;49.30;;;;;;4983989;28;20488;-86
2022/06/19 12:39:20;;;;;;;9.70;4.32;;;33.50;48.50;;;;;;5004054;28;20038;-86
2022/06/19 12:42:23;;;;;;;12.77;7.35;;;33.50;48.20;;;;;;5009319;28;20030;-80
2022/06/19 12:45:38;;;;;;;19.77;11.13;;;33.50;48.30;;;;;;5007032;28;20036;-79
2022/06/19 12:48:06;;;;;;;11.35;4.53;;;33.50;47.10;;;;;;4987585;28;20042;-88
2022/06/19 12:50:34;;;;;;;8.15;3.72;;;33.60;47.30;;;;;;4994185;28;20023;-91
2022/06/19 12:53:03;;;;;;;14.27;3.38;;;33.60;48.50;;;;;;5006676;28;20034;-92
2022/06/19 12:56:00;;;;;;;9.82;3.90;;;33.70;48.30;;;;;;5014316;28;20030;-84
2022/06/19 12:58:51;;;;;;;11.18;3.53;;;33.70;46.20;;;;;;5002925;28;20116;-85
2022/06/19 13:01:30;;;;;;;8.20;4.35;;;33.80;46.70;;;;;;4998682;28;20044;-85
2022/06/19 13:04:14;;;;;;;9.93;3.72;;;33.90;47.30;;;;;;4996814;28;20040;-87
2022/06/19 13:07:08;;;;;;;9.70;3.83;;;34.00;47.30;;;;;;5002800;28;20054;-87
2022/06/19 13:09:40;;;;;;;10.35;3.90;;;34.20;47.00;;;;;;5010466;28;20084;-85
2022/06/19 13:12:27;;;;;;;7.50;3.10;;;34.30;46.80;;;;;;5005924;28;20025;-85
2022/06/19 13:15:04;;;;;;;6.25;3.53;;;34.40;46.60;;;;;;5008958;28;20072;-87